createdAt,value
2022-07-26T00:02:25.405Z,60.49
2022-07-26T00:04:55.257Z,60.33
2022-07-26T00:07:25.023Z,59.65
2022-07-26T00:09:54.788Z,59.47
2022-07-26T00:12:24.576Z,58.96
2022-07-26T00:14:54.511Z,59.35
2022-07-26T00:17:24.367Z,59.44
2022-07-26T00:19:54.148Z,58.77
2022-07-26T00:22:36.043Z,59.19
2022-07-26T00:25:09.542Z,59.53
2022-07-26T00:27:39.349Z,60.29
2022-07-26T00:30:11.483Z,59.87
2022-07-26T00:32:41.259Z,60.05
2022-07-26T00:35:11.172Z,59.71
2022-07-26T00:37:41.474Z,59.98
2022-07-26T00:40:12.720Z,60.06
2022-07-26T00:42:42.351Z,59.48
2022-07-26T00:45:15.257Z,59.96
2022-07-26T00:47:45.175Z,60.74
2022-07-26T00:50:17.494Z,60.31
2022-07-26T00:52:49.720Z,60.28
2022-07-26T00:55:19.737Z,59.69
2022-07-26T00:57:52.090Z,59.61
2022-07-26T01:00:27.072Z,60.98
2022-07-26T01:02:57.402Z,61.02
2022-07-26T01:05:28.090Z,61.31
2022-07-26T01:07:58.484Z,61.08
2022-07-26T01:10:27.969Z,61.33
2022-07-26T01:12:57.752Z,61.13
2022-07-26T01:15:28.373Z,60.80
2022-07-26T01:17:58.164Z,60.65
2022-07-26T01:20:27.887Z,60.41
2022-07-26T01:22:57.677Z,61.90
2022-07-26T01:25:32.584Z,62.07
2022-07-26T01:28:06.889Z,61.26
2022-07-26T01:30:36.963Z,61.36
2022-07-26T01:33:06.612Z,61.55
2022-07-26T01:35:36.744Z,61.42
2022-07-26T01:38:08.095Z,61.70
2022-07-26T01:40:37.873Z,62.19
2022-07-26T01:43:07.832Z,61.53
2022-07-26T01:45:37.701Z,62.46
2022-07-26T01:48:10.079Z,62.59
2022-07-26T01:50:39.862Z,62.21
2022-07-26T01:53:09.645Z,63.61
2022-07-26T01:55:39.417Z,64.79
2022-07-26T01:58:11.051Z,65.70
2022-07-26T02:00:41.163Z,67.66
2022-07-26T02:03:11.480Z,69.18
2022-07-26T02:05:41.386Z,69.37
2022-07-26T02:08:12.570Z,70.01
2022-07-26T02:10:59.817Z,69.88
2022-07-26T02:13:38.909Z,70.17
2022-07-26T02:16:12.483Z,71.77
2022-07-26T02:18:42.915Z,73.04
2022-07-26T02:21:12.702Z,73.13
2022-07-26T02:23:42.783Z,73.49
2022-07-26T02:26:12.560Z,73.84
2022-07-26T02:28:42.760Z,72.26
2022-07-26T02:31:15.305Z,72.57
2022-07-26T02:33:44.084Z,72.82
2022-07-26T02:36:13.581Z,72.19
2022-07-26T02:38:43.657Z,72.42
2022-07-26T02:41:13.435Z,72.42
2022-07-26T02:43:43.204Z,71.03
2022-07-26T02:46:13.477Z,71.03
2022-07-26T02:48:43.316Z,71.32
2022-07-26T02:51:13.189Z,71.94
2022-07-26T02:53:43.069Z,71.68
2022-07-26T02:56:12.540Z,72.19
2022-07-26T02:58:42.329Z,71.62
2022-07-26T03:01:12.393Z,70.96
2022-07-26T03:03:48.636Z,70.46
2022-07-26T03:06:14.556Z,70.87
2022-07-26T03:08:44.372Z,71.36
2022-07-26T03:11:14.445Z,71.84
2022-07-26T03:13:44.292Z,71.71
2022-07-26T03:16:15.042Z,71.12
2022-07-26T03:18:46.026Z,71.21
2022-07-26T03:21:15.569Z,71.19
2022-07-26T03:23:45.339Z,70.27
2022-07-26T03:26:15.515Z,71.84
2022-07-26T03:28:45.291Z,71.84
2022-07-26T03:31:15.329Z,71.34
2022-07-26T03:33:45.178Z,71.51
2022-07-26T03:36:15.668Z,71.89
2022-07-26T03:38:45.698Z,72.48
2022-07-26T03:41:15.472Z,72.17
2022-07-26T03:43:45.294Z,71.86
2022-07-26T03:46:15.024Z,71.95
2022-07-26T03:48:44.945Z,72.45
2022-07-26T03:51:15.055Z,72.19
2022-07-26T03:53:44.855Z,71.93
2022-07-26T03:56:31.135Z,71.70
2022-07-26T03:59:03.313Z,71.20
2022-07-26T04:01:34.910Z,70.75
2022-07-26T04:04:06.878Z,71.53
2022-07-26T04:06:38.516Z,71.82
2022-07-26T04:09:09.125Z,71.05
2022-07-26T04:11:40.138Z,71.34
2022-07-26T04:14:12.597Z,70.86
2022-07-26T04:16:43.855Z,71.29
2022-07-26T04:19:13.933Z,71.18
2022-07-26T04:21:44.025Z,70.76
2022-07-26T04:24:13.856Z,70.16
2022-07-26T04:26:43.595Z,70.33
2022-07-26T04:29:14.709Z,69.38
2022-07-26T04:31:44.493Z,69.77
2022-07-26T04:34:14.265Z,70.62
2022-07-26T04:36:44.084Z,70.94
2022-07-26T04:39:13.874Z,70.21
2022-07-26T04:41:43.644Z,70.07
2022-07-26T04:44:13.424Z,70.37
2022-07-26T04:46:44.936Z,70.01
2022-07-26T04:49:14.748Z,69.63
2022-07-26T04:51:44.518Z,70.55
2022-07-26T04:54:15.622Z,70.72
2022-07-26T04:56:45.690Z,71.05
2022-07-26T04:59:18.520Z,70.78
2022-07-26T05:01:46.860Z,70.11
2022-07-26T05:04:16.664Z,69.93
2022-07-26T05:06:46.236Z,69.75
2022-07-26T05:09:16.035Z,70.43
2022-07-26T05:11:46.103Z,69.66
2022-07-26T05:14:15.883Z,69.66
2022-07-26T05:16:46.097Z,71.02
2022-07-26T05:19:16.333Z,70.84
2022-07-26T05:21:46.177Z,70.64
2022-07-26T05:24:15.969Z,70.63
2022-07-26T05:26:45.747Z,70.58
2022-07-26T05:29:15.329Z,70.45
2022-07-26T05:31:45.115Z,70.45
2022-07-26T05:34:14.885Z,71.93
2022-07-26T05:36:44.674Z,70.70
2022-07-26T05:39:16.166Z,71.07
2022-07-26T05:41:45.987Z,69.94
2022-07-26T05:44:15.834Z,69.10
2022-07-26T05:46:45.631Z,68.98
2022-07-26T05:49:15.543Z,69.62
2022-07-26T05:51:45.393Z,69.38
2022-07-26T05:54:15.646Z,69.11
2022-07-26T05:56:46.919Z,67.77
2022-07-26T05:59:16.682Z,68.09
2022-07-26T06:01:46.473Z,69.13
2022-07-26T06:04:16.224Z,69.36
2022-07-26T06:06:45.977Z,68.54
2022-07-26T06:09:15.818Z,67.83
2022-07-26T06:11:45.871Z,66.74
2022-07-26T06:14:15.536Z,66.97
2022-07-26T06:16:46.155Z,66.77
2022-07-26T06:19:16.271Z,66.46
2022-07-26T06:21:46.159Z,65.38
2022-07-26T06:24:16.140Z,65.19
2022-07-26T06:26:46.598Z,64.81
2022-07-26T06:29:16.664Z,65.10
2022-07-26T06:31:46.603Z,64.77
2022-07-26T06:34:16.500Z,63.46
2022-07-26T06:36:46.641Z,63.20
2022-07-26T06:39:16.122Z,62.51
2022-07-26T06:41:45.900Z,62.69
2022-07-26T06:44:15.661Z,61.89
2022-07-26T06:46:45.445Z,61.25
2022-07-26T06:49:19.439Z,60.60
2022-07-26T06:51:47.161Z,60.60
2022-07-26T06:54:16.933Z,61.86
2022-07-26T06:56:46.725Z,62.68
2022-07-26T06:59:16.490Z,62.68
2022-07-26T07:01:51.343Z,62.58
2022-07-26T07:04:18.041Z,61.83
2022-07-26T07:06:47.828Z,61.83
2022-07-26T07:09:19.151Z,60.18
2022-07-26T07:11:52.307Z,60.48
2022-07-26T07:14:22.769Z,60.22
2022-07-26T07:16:52.689Z,59.24
2022-07-26T07:19:22.146Z,59.75
2022-07-26T07:21:52.461Z,59.75
2022-07-26T07:24:21.931Z,60.76
2022-07-26T07:26:52.078Z,60.37
2022-07-26T07:29:22.143Z,60.59
2022-07-26T07:31:52.016Z,60.74
2022-07-26T07:34:24.198Z,61.73
2022-07-26T07:36:54.436Z,61.71
2022-07-26T07:39:24.284Z,61.11
2022-07-26T07:41:55.500Z,60.69
2022-07-26T07:44:25.263Z,60.61
2022-07-26T07:46:55.149Z,59.65
2022-07-26T07:49:25.018Z,60.57
2022-07-26T07:51:54.608Z,61.72
2022-07-26T07:54:24.372Z,60.67
2022-07-26T07:56:56.321Z,61.59
2022-07-26T07:59:25.850Z,62.27
2022-07-26T08:01:55.617Z,62.27
2022-07-26T08:04:25.480Z,64.40
2022-07-26T08:06:55.702Z,64.73
2022-07-26T08:09:28.982Z,65.28
2022-07-26T08:11:59.070Z,66.85
2022-07-26T08:14:30.185Z,67.85
2022-07-26T08:17:00.203Z,69.38
2022-07-26T08:19:41.716Z,68.33
2022-07-26T08:22:01.563Z,68.53
2022-07-26T08:24:31.404Z,70.21
2022-07-26T08:27:01.172Z,69.66
2022-07-26T08:29:30.988Z,70.14
2022-07-26T08:32:01.407Z,70.84
2022-07-26T08:34:31.293Z,69.45
2022-07-26T08:37:16.610Z,69.80
2022-07-26T08:39:32.597Z,70.06
2022-07-26T08:42:04.357Z,69.44
2022-07-26T08:44:34.874Z,67.87
2022-07-26T08:47:04.956Z,67.54
2022-07-26T08:49:34.594Z,67.23
2022-07-26T08:52:09.067Z,67.23
2022-07-26T08:54:40.504Z,66.96
2022-07-26T08:57:12.053Z,65.85
2022-07-26T08:59:42.087Z,64.78
2022-07-26T09:02:13.889Z,66.40
2022-07-26T09:04:46.316Z,65.71
2022-07-26T09:07:19.351Z,65.39
2022-07-26T09:10:03.005Z,64.59
2022-07-26T09:12:33.814Z,64.66
2022-07-26T09:15:06.208Z,63.62
2022-07-26T09:17:43.998Z,63.62
2022-07-26T09:20:16.851Z,63.45
2022-07-26T09:23:04.077Z,63.21
2022-07-26T09:25:39.384Z,62.70
2022-07-26T09:28:25.651Z,62.75
2022-07-26T09:31:04.450Z,62.10
2022-07-26T09:33:48.571Z,61.50
2022-07-26T09:36:19.387Z,61.60
2022-07-26T09:38:54.509Z,61.43
2022-07-26T09:41:37.544Z,60.78
2022-07-26T09:44:12.830Z,61.30
2022-07-26T09:46:45.973Z,60.59
2022-07-26T09:49:20.991Z,61.06
2022-07-26T09:51:53.743Z,60.24
2022-07-26T09:54:35.159Z,59.93
2022-07-26T09:57:05.068Z,59.93
2022-07-26T09:59:34.828Z,58.75
2022-07-26T10:02:06.602Z,58.49
2022-07-26T10:04:36.812Z,58.53
2022-07-26T10:07:06.595Z,58.50
2022-07-26T10:09:45.193Z,59.58
2022-07-26T10:12:18.077Z,58.50
2022-07-26T10:14:51.028Z,58.80
2022-07-26T10:17:41.732Z,58.94
2022-07-26T10:20:19.563Z,59.24
2022-07-26T10:22:50.493Z,57.25
2022-07-26T10:25:23.473Z,56.63
2022-07-26T10:27:56.093Z,57.79
2022-07-26T10:30:47.184Z,58.62
2022-07-26T10:33:18.713Z,61.75
2022-07-26T10:35:48.518Z,67.87
2022-07-26T10:38:26.510Z,71.71
2022-07-26T10:41:01.416Z,71.82
2022-07-26T10:43:41.247Z,72.37
2022-07-26T10:46:22.610Z,71.87
2022-07-26T10:49:09.350Z,70.81
2022-07-26T10:51:41.505Z,69.97
2022-07-26T10:54:14.033Z,70.88
2022-07-26T10:56:43.957Z,70.76
2022-07-26T10:59:13.724Z,70.25
2022-07-26T11:01:45.416Z,68.13
2022-07-26T11:04:21.986Z,68.13
2022-07-26T11:06:52.753Z,67.34
2022-07-26T11:09:23.522Z,64.44
2022-07-26T11:11:53.282Z,64.44
2022-07-26T11:14:22.770Z,63.18
2022-07-26T11:16:52.964Z,63.59
2022-07-26T11:19:25.836Z,63.62
2022-07-26T11:22:00.689Z,62.02
2022-07-26T11:24:30.828Z,60.84
2022-07-26T11:27:04.953Z,62.60
2022-07-26T11:29:38.463Z,60.99
2022-07-26T11:32:19.044Z,60.51
2022-07-26T11:34:50.660Z,58.84
2022-07-26T11:37:20.459Z,58.78
2022-07-26T11:39:50.216Z,59.11
2022-07-26T11:42:21.542Z,59.23
2022-07-26T11:44:53.427Z,58.59
2022-07-26T11:47:26.389Z,57.11
2022-07-26T11:52:32.685Z,58.19
2022-07-26T11:55:03.048Z,57.72
2022-07-26T11:57:33.153Z,56.46
2022-07-26T12:00:03.272Z,56.60
2022-07-26T12:02:41.974Z,57.40
2022-07-26T12:05:18.448Z,55.70
2022-07-26T12:08:04.326Z,55.39
2022-07-26T12:10:34.381Z,56.13
2022-07-26T12:13:16.080Z,54.91
2022-07-26T12:15:51.921Z,54.91
2022-07-26T12:18:26.809Z,56.27
2022-07-26T12:21:07.851Z,54.93
2022-07-26T12:23:49.884Z,54.85
2022-07-26T12:26:30.771Z,54.83
2022-07-26T12:29:19.389Z,54.31
2022-07-26T12:32:12.559Z,53.58
2022-07-26T12:34:43.426Z,53.74
2022-07-26T12:37:18.299Z,52.55
2022-07-26T12:40:11.658Z,52.33
2022-07-26T12:42:44.146Z,52.40
2022-07-26T12:45:14.564Z,50.93
2022-07-26T12:47:47.469Z,50.81
2022-07-26T12:50:19.421Z,50.83
2022-07-26T12:52:49.735Z,50.21
2022-07-26T12:55:21.529Z,50.25
2022-07-26T12:57:51.287Z,49.02
2022-07-26T13:00:22.867Z,50.04
2022-07-26T13:02:56.132Z,49.38
2022-07-26T13:05:26.096Z,49.38
2022-07-26T13:07:55.985Z,48.39
2022-07-26T13:10:35.038Z,48.39
2022-07-26T13:12:58.902Z,48.89
2022-07-26T13:15:36.803Z,48.48
2022-07-26T13:18:00.221Z,49.85
2022-07-26T13:20:29.768Z,49.92
2022-07-26T13:22:59.271Z,49.03
2022-07-26T13:25:34.055Z,48.75
2022-07-26T13:28:00.528Z,48.75
2022-07-26T13:30:30.559Z,47.57
2022-07-26T13:33:00.362Z,47.16
2022-07-26T13:35:30.130Z,45.42
2022-07-26T13:37:59.892Z,46.47
2022-07-26T13:40:31.752Z,47.12
2022-07-26T13:43:01.065Z,47.48
2022-07-26T13:45:30.907Z,48.79
2022-07-26T13:48:00.732Z,48.18
2022-07-26T13:50:30.501Z,48.18
2022-07-26T13:53:00.341Z,48.13
2022-07-26T13:55:30.107Z,48.11
2022-07-26T13:57:59.866Z,47.08
2022-07-26T14:00:30.839Z,47.13
2022-07-26T14:03:01.036Z,46.35
2022-07-26T14:05:31.055Z,46.14
2022-07-26T14:08:00.904Z,46.55
2022-07-26T14:10:30.384Z,45.73
2022-07-26T14:13:00.931Z,46.81
2022-07-26T14:15:30.701Z,45.73
2022-07-26T14:18:00.236Z,44.96
2022-07-26T14:20:30.351Z,44.96
2022-07-26T14:23:01.018Z,46.10
2022-07-26T14:25:33.292Z,47.23
2022-07-26T14:28:02.316Z,46.63
2022-07-26T14:30:32.227Z,46.28
2022-07-26T14:33:02.064Z,46.28
2022-07-26T14:35:31.544Z,45.96
2022-07-26T14:38:01.384Z,45.95
2022-07-26T14:40:31.142Z,45.80
2022-07-26T14:43:01.504Z,45.22
2022-07-26T14:45:31.324Z,44.31
2022-07-26T14:48:01.098Z,44.31
2022-07-26T14:50:47.028Z,43.92
2022-07-26T14:53:02.227Z,44.05
2022-07-26T14:55:31.700Z,43.90
2022-07-26T14:58:01.759Z,42.61
2022-07-26T15:00:31.628Z,42.26
2022-07-26T15:03:02.157Z,42.62
2022-07-26T15:05:31.957Z,42.49
2022-07-26T15:08:05.931Z,42.48
2022-07-26T15:10:33.261Z,42.93
2022-07-26T15:13:06.227Z,44.59
2022-07-26T15:15:36.446Z,44.51
2022-07-26T15:18:08.080Z,44.56
2022-07-26T15:20:40.065Z,44.20
2022-07-26T15:23:11.746Z,44.82
2022-07-26T15:25:41.859Z,44.30
2022-07-26T15:28:11.757Z,43.71
2022-07-26T15:30:41.520Z,44.17
2022-07-26T15:33:11.371Z,43.31
2022-07-26T15:35:41.492Z,42.47
2022-07-26T15:38:12.298Z,42.24
2022-07-26T15:40:42.129Z,42.72
2022-07-26T15:43:11.984Z,42.85
2022-07-26T15:45:43.767Z,42.49
2022-07-26T15:48:18.324Z,41.90
2022-07-26T15:50:45.837Z,40.65
2022-07-26T15:53:16.606Z,41.54
2022-07-26T15:55:46.392Z,41.45
2022-07-26T15:58:16.149Z,41.01
2022-07-26T16:00:46.316Z,40.85
2022-07-26T16:03:16.323Z,40.41
2022-07-26T16:05:47.571Z,40.74
2022-07-26T16:08:17.112Z,40.41
2022-07-26T16:10:47.219Z,41.01
2022-07-26T16:13:16.982Z,40.00
2022-07-26T16:15:46.746Z,39.46
2022-07-26T16:18:16.233Z,39.77
2022-07-26T16:20:46.639Z,38.59
2022-07-26T16:23:16.444Z,38.59
2022-07-26T16:25:45.910Z,38.24
2022-07-26T16:28:15.673Z,38.21
2022-07-26T16:30:45.450Z,39.06
2022-07-26T16:33:15.282Z,40.12
2022-07-26T16:35:45.055Z,39.66
2022-07-26T16:38:14.542Z,39.66
2022-07-26T16:40:44.776Z,40.21
2022-07-26T16:43:14.342Z,40.75
2022-07-26T16:45:44.178Z,40.92
2022-07-26T16:48:13.961Z,41.42
2022-07-26T16:50:43.776Z,41.88
2022-07-26T16:53:13.547Z,41.74
2022-07-26T16:55:45.059Z,41.30
2022-07-26T16:58:14.822Z,42.37
2022-07-26T17:00:44.722Z,42.52
2022-07-26T17:03:16.200Z,41.66
2022-07-26T17:05:46.718Z,41.57
2022-07-26T17:08:16.829Z,42.03
2022-07-26T17:10:46.661Z,42.28
2022-07-26T17:13:16.721Z,43.05
2022-07-26T17:15:46.417Z,43.39
2022-07-26T17:18:16.071Z,43.33
2022-07-26T17:20:45.830Z,43.14
2022-07-26T17:23:15.353Z,43.49
2022-07-26T17:25:45.538Z,43.49
2022-07-26T17:28:15.158Z,44.29
2022-07-26T17:30:45.206Z,44.40
2022-07-26T17:33:15.125Z,44.29
2022-07-26T17:35:44.919Z,44.38
2022-07-26T17:38:14.756Z,44.38
2022-07-26T17:40:44.911Z,44.15
2022-07-26T17:43:16.688Z,43.87
2022-07-26T17:45:46.155Z,44.11
2022-07-26T17:48:15.633Z,43.67
2022-07-26T17:50:45.757Z,44.14
2022-07-26T17:53:15.519Z,43.66
2022-07-26T17:55:47.291Z,44.38
2022-07-26T17:58:16.958Z,44.48
2022-07-26T18:00:47.061Z,44.57
2022-07-26T18:03:16.820Z,44.22
2022-07-26T18:05:46.672Z,44.30
2022-07-26T18:08:16.641Z,43.74
2022-07-26T18:10:51.091Z,43.77
2022-07-26T18:13:18.319Z,43.30
2022-07-26T18:15:48.321Z,43.65
2022-07-26T18:18:19.260Z,43.23
2022-07-26T18:20:49.275Z,43.73
2022-07-26T18:23:19.114Z,44.22
2022-07-26T18:25:48.883Z,43.79
2022-07-26T18:28:18.354Z,44.65
2022-07-26T18:30:48.142Z,44.54
2022-07-26T18:33:17.973Z,44.57
2022-07-26T18:35:47.739Z,44.65
2022-07-26T18:38:17.324Z,44.58
2022-07-26T18:40:47.115Z,44.47
2022-07-26T18:43:16.879Z,45.08
2022-07-26T18:45:46.846Z,44.92
2022-07-26T18:48:16.465Z,45.10
2022-07-26T18:50:46.369Z,44.94
2022-07-26T18:53:16.217Z,45.20
2022-07-26T18:55:45.980Z,45.20
2022-07-26T18:58:15.874Z,45.86
2022-07-26T19:00:45.925Z,46.50
2022-07-26T19:03:16.546Z,46.15
2022-07-26T19:05:46.587Z,46.04
2022-07-26T19:08:16.380Z,45.52
2022-07-26T19:10:46.143Z,46.23
2022-07-26T19:13:15.908Z,46.35
2022-07-26T19:15:45.783Z,46.46
2022-07-26T19:18:16.269Z,47.10
2022-07-26T19:20:46.175Z,46.87
2022-07-26T19:23:15.654Z,47.05
2022-07-26T19:25:47.253Z,47.71
2022-07-26T19:28:17.150Z,47.74
2022-07-26T19:30:47.037Z,47.89
2022-07-26T19:33:16.858Z,48.12
2022-07-26T19:35:46.593Z,48.52
2022-07-26T19:38:16.407Z,48.92
2022-07-26T19:40:46.354Z,49.56
2022-07-26T19:43:16.414Z,49.54
2022-07-26T19:45:46.322Z,50.25
2022-07-26T19:48:16.726Z,50.26
2022-07-26T19:50:46.496Z,51.42
2022-07-26T19:53:16.396Z,51.14
2022-07-26T19:55:46.564Z,51.58
2022-07-26T19:58:16.344Z,51.58
2022-07-26T20:00:46.121Z,51.34
2022-07-26T20:03:16.192Z,51.41
2022-07-26T20:05:46.233Z,52.00
2022-07-26T20:08:15.699Z,52.11
2022-07-26T20:10:45.541Z,52.47
2022-07-26T20:13:15.375Z,51.96
2022-07-26T20:15:46.620Z,52.55
2022-07-26T20:18:18.389Z,53.07
2022-07-26T20:20:48.332Z,52.93
2022-07-26T20:23:18.085Z,52.79
2022-07-26T20:25:47.867Z,52.55
2022-07-26T20:28:17.879Z,52.74
2022-07-26T20:30:50.402Z,52.46
2022-07-26T20:33:20.177Z,53.12
2022-07-26T20:35:54.748Z,53.69
2022-07-26T20:38:21.399Z,53.47
2022-07-26T20:40:51.247Z,53.63
2022-07-26T20:43:22.300Z,53.03
2022-07-26T20:45:52.199Z,53.29
2022-07-26T20:48:21.949Z,53.17
2022-07-26T20:50:51.736Z,53.39
2022-07-26T20:53:21.563Z,53.49
2022-07-26T20:55:51.586Z,53.71
2022-07-26T20:58:22.116Z,53.93
2022-07-26T21:00:52.296Z,54.16
2022-07-26T21:03:22.474Z,54.55
2022-07-26T21:05:52.532Z,54.37
2022-07-26T21:08:22.586Z,54.05
2022-07-26T21:10:52.374Z,53.87
2022-07-26T21:13:22.296Z,54.05
2022-07-26T21:15:53.671Z,54.05
2022-07-26T21:18:23.485Z,54.38
2022-07-26T21:20:53.253Z,54.90
2022-07-26T21:23:23.291Z,55.33
2022-07-26T21:26:00.459Z,55.57
2022-07-26T21:28:26.062Z,55.75
2022-07-26T21:30:56.442Z,55.77
2022-07-26T21:33:26.273Z,56.25
2022-07-26T21:35:56.035Z,56.24
2022-07-26T21:38:27.189Z,56.23
2022-07-26T21:40:56.958Z,56.23
2022-07-26T21:43:27.185Z,56.84
2022-07-26T21:45:57.062Z,56.84
2022-07-26T21:48:26.920Z,57.31
2022-07-26T21:50:56.764Z,57.54
2022-07-26T21:53:26.524Z,57.81
2022-07-26T21:55:57.655Z,57.76
2022-07-26T21:58:28.149Z,58.24
2022-07-26T22:00:59.763Z,58.45
2022-07-26T22:03:30.573Z,58.83
2022-07-26T22:06:02.052Z,58.67
2022-07-26T22:08:33.807Z,58.67
2022-07-26T22:11:03.646Z,59.24
2022-07-26T22:13:33.675Z,59.31
2022-07-26T22:16:03.583Z,59.31
2022-07-26T22:18:33.635Z,59.46
2022-07-26T22:21:03.581Z,59.77
2022-07-26T22:23:33.552Z,59.72
2022-07-26T22:26:05.049Z,59.58
2022-07-26T22:28:35.039Z,59.76
2022-07-26T22:31:04.559Z,59.76
2022-07-26T22:33:34.342Z,60.12
2022-07-26T22:36:04.168Z,60.42
2022-07-26T22:38:33.961Z,60.40
2022-07-26T22:41:03.798Z,60.10
2022-07-26T22:43:33.588Z,60.46
2022-07-26T22:46:03.498Z,60.50
2022-07-26T22:48:37.868Z,60.79
2022-07-26T22:51:04.806Z,60.57
2022-07-26T22:53:34.653Z,60.34
2022-07-26T22:56:04.447Z,60.23
2022-07-26T22:58:34.533Z,60.15
2022-07-26T23:01:04.431Z,60.15
2022-07-26T23:03:34.522Z,60.25
2022-07-26T23:06:10.392Z,60.44
2022-07-26T23:08:47.960Z,60.51
2022-07-26T23:11:11.504Z,60.31
2022-07-26T23:13:41.301Z,60.51
2022-07-26T23:16:13.268Z,60.57
2022-07-26T23:18:43.035Z,60.57
2022-07-26T23:21:12.815Z,60.61
2022-07-26T23:23:42.570Z,60.72
2022-07-26T23:26:14.460Z,60.71
2022-07-26T23:28:44.361Z,60.88
2022-07-26T23:31:14.558Z,61.39
2022-07-26T23:33:53.120Z,61.62
2022-07-26T23:36:16.271Z,61.69
2022-07-26T23:38:46.071Z,61.60
2022-07-26T23:41:15.864Z,61.75
2022-07-26T23:43:45.656Z,61.57
2022-07-26T23:46:15.837Z,61.70
2022-07-26T23:48:46.210Z,61.79
2022-07-26T23:51:16.606Z,61.62
2022-07-26T23:53:47.142Z,61.80
2022-07-26T23:56:17.567Z,61.89
2022-07-26T23:58:47.689Z,61.78
